sensor_id;sensor_type;location;lat;lon;timestamp;P1;durP1;ratioP1;P2;durP2;ratioP2
3689;SDS011;1861;50.240;8.596;2023-12-14T00:02:08;3.50;;;1.57;;
3689;SDS011;1861;50.240;8.596;2023-12-14T00:04:36;6.33;;;1.30;;
3689;SDS011;1861;50.240;8.596;2023-12-14T00:07:04;4.70;;;1.70;;
3689;SDS011;1861;50.240;8.596;2023-12-14T00:09:32;2.90;;;1.03;;
3689;SDS011;1861;50.240;8.596;2023-12-14T00:12:00;4.67;;;1.90;;
3689;SDS011;1861;50.240;8.596;2023-12-14T00:14:28;2.87;;;1.13;;
3689;SDS011;1861;50.240;8.596;2023-12-14T00:16:58;2.60;;;1.50;;
3689;SDS011;1861;50.240;8.596;2023-12-14T00:19:26;3.43;;;1.40;;
3689;SDS011;1861;50.240;8.596;2023-12-14T00:21:54;17.50;;;1.97;;
3689;SDS011;1861;50.240;8.596;2023-12-14T00:24:22;2.60;;;1.23;;
3689;SDS011;1861;50.240;8.596;2023-12-14T00:26:51;4.93;;;1.43;;
3689;SDS011;1861;50.240;8.596;2023-12-14T00:29:19;3.97;;;1.50;;
3689;SDS011;1861;50.240;8.596;2023-12-14T00:31:47;1.30;;;1.20;;
3689;SDS011;1861;50.240;8.596;2023-12-14T00:34:17;2.27;;;1.10;;
3689;SDS011;1861;50.240;8.596;2023-12-14T00:36:45;3.63;;;1.90;;
3689;SDS011;1861;50.240;8.596;2023-12-14T00:39:13;3.57;;;1.30;;
3689;SDS011;1861;50.240;8.596;2023-12-14T00:41:41;1.53;;;1.27;;
3689;SDS011;1861;50.240;8.596;2023-12-14T00:44:09;1.23;;;1.13;;
3689;SDS011;1861;50.240;8.596;2023-12-14T00:46:37;2.90;;;1.60;;
3689;SDS011;1861;50.240;8.596;2023-12-14T00:49:06;7.63;;;1.90;;
3689;SDS011;1861;50.240;8.596;2023-12-14T00:51:35;3.33;;;1.30;;
3689;SDS011;1861;50.240;8.596;2023-12-14T00:54:04;4.47;;;1.90;;
3689;SDS011;1861;50.240;8.596;2023-12-14T00:56:32;2.83;;;1.60;;
3689;SDS011;1861;50.240;8.596;2023-12-14T00:59:00;3.57;;;1.37;;
3689;SDS011;1861;50.240;8.596;2023-12-14T01:01:29;3.43;;;1.67;;
3689;SDS011;1861;50.240;8.596;2023-12-14T01:03:57;1.87;;;1.40;;
3689;SDS011;1861;50.240;8.596;2023-12-14T01:06:26;3.63;;;1.60;;
3689;SDS011;1861;50.240;8.596;2023-12-14T01:08:55;3.80;;;1.80;;
3689;SDS011;1861;50.240;8.596;2023-12-14T01:11:23;4.40;;;1.80;;
3689;SDS011;1861;50.240;8.596;2023-12-14T01:13:51;4.60;;;1.80;;
3689;SDS011;1861;50.240;8.596;2023-12-14T01:16:19;2.43;;;1.50;;
3689;SDS011;1861;50.240;8.596;2023-12-14T01:18:47;2.83;;;1.80;;
3689;SDS011;1861;50.240;8.596;2023-12-14T01:21:16;7.17;;;1.80;;
3689;SDS011;1861;50.240;8.596;2023-12-14T01:23:44;2.07;;;1.67;;
3689;SDS011;1861;50.240;8.596;2023-12-14T01:26:14;4.37;;;1.73;;
3689;SDS011;1861;50.240;8.596;2023-12-14T01:28:42;3.00;;;1.70;;
3689;SDS011;1861;50.240;8.596;2023-12-14T01:31:10;6.53;;;2.00;;
3689;SDS011;1861;50.240;8.596;2023-12-14T01:33:38;5.10;;;1.80;;
3689;SDS011;1861;50.240;8.596;2023-12-14T01:36:26;7.17;;;1.90;;
3689;SDS011;1861;50.240;8.596;2023-12-14T01:38:54;2.20;;;1.70;;
3689;SDS011;1861;50.240;8.596;2023-12-14T01:41:23;6.60;;;2.10;;
3689;SDS011;1861;50.240;8.596;2023-12-14T01:43:51;2.43;;;1.53;;
3689;SDS011;1861;50.240;8.596;2023-12-14T01:46:19;1.83;;;1.60;;
3689;SDS011;1861;50.240;8.596;2023-12-14T01:48:47;3.30;;;1.83;;
3689;SDS011;1861;50.240;8.596;2023-12-14T01:51:16;5.63;;;2.37;;
3689;SDS011;1861;50.240;8.596;2023-12-14T01:53:44;4.50;;;2.00;;
3689;SDS011;1861;50.240;8.596;2023-12-14T01:56:12;2.23;;;1.63;;
3689;SDS011;1861;50.240;8.596;2023-12-14T01:58:41;1.70;;;1.60;;
3689;SDS011;1861;50.240;8.596;2023-12-14T02:01:11;8.57;;;2.00;;
3689;SDS011;1861;50.240;8.596;2023-12-14T02:03:47;3.30;;;1.93;;
3689;SDS011;1861;50.240;8.596;2023-12-14T02:06:18;4.77;;;1.93;;
3689;SDS011;1861;50.240;8.596;2023-12-14T02:08:47;3.10;;;1.87;;
3689;SDS011;1861;50.240;8.596;2023-12-14T02:11:15;3.97;;;2.00;;
3689;SDS011;1861;50.240;8.596;2023-12-14T02:13:45;2.10;;;1.80;;
3689;SDS011;1861;50.240;8.596;2023-12-14T02:16:13;7.53;;;2.20;;
3689;SDS011;1861;50.240;8.596;2023-12-14T02:18:41;2.90;;;2.00;;
3689;SDS011;1861;50.240;8.596;2023-12-14T02:21:10;2.97;;;2.10;;
3689;SDS011;1861;50.240;8.596;2023-12-14T02:23:43;6.67;;;2.17;;
3689;SDS011;1861;50.240;8.596;2023-12-14T02:26:11;3.40;;;2.00;;
3689;SDS011;1861;50.240;8.596;2023-12-14T02:28:40;4.77;;;2.40;;
3689;SDS011;1861;50.240;8.596;2023-12-14T02:31:08;8.03;;;2.50;;
3689;SDS011;1861;50.240;8.596;2023-12-14T02:33:36;7.67;;;3.60;;
3689;SDS011;1861;50.240;8.596;2023-12-14T02:36:05;6.17;;;3.03;;
3689;SDS011;1861;50.240;8.596;2023-12-14T02:38:33;4.13;;;2.30;;
3689;SDS011;1861;50.240;8.596;2023-12-14T02:41:03;9.27;;;3.47;;
3689;SDS011;1861;50.240;8.596;2023-12-14T02:43:31;5.43;;;2.97;;
3689;SDS011;1861;50.240;8.596;2023-12-14T02:46:00;8.10;;;3.43;;
3689;SDS011;1861;50.240;8.596;2023-12-14T02:48:29;9.37;;;3.30;;
3689;SDS011;1861;50.240;8.596;2023-12-14T02:50:58;8.67;;;4.27;;
3689;SDS011;1861;50.240;8.596;2023-12-14T02:53:27;9.77;;;4.40;;
3689;SDS011;1861;50.240;8.596;2023-12-14T02:55:55;15.07;;;4.80;;
3689;SDS011;1861;50.240;8.596;2023-12-14T02:58:24;9.87;;;4.63;;
3689;SDS011;1861;50.240;8.596;2023-12-14T03:00:53;14.43;;;5.63;;
3689;SDS011;1861;50.240;8.596;2023-12-14T03:03:21;15.80;;;5.50;;
3689;SDS011;1861;50.240;8.596;2023-12-14T03:05:49;12.23;;;5.57;;
3689;SDS011;1861;50.240;8.596;2023-12-14T03:08:17;12.50;;;6.30;;
3689;SDS011;1861;50.240;8.596;2023-12-14T03:10:45;11.20;;;4.93;;
3689;SDS011;1861;50.240;8.596;2023-12-14T03:13:13;11.87;;;6.17;;
3689;SDS011;1861;50.240;8.596;2023-12-14T03:15:43;12.20;;;5.37;;
3689;SDS011;1861;50.240;8.596;2023-12-14T03:18:12;11.00;;;6.13;;
3689;SDS011;1861;50.240;8.596;2023-12-14T03:20:40;16.17;;;5.90;;
3689;SDS011;1861;50.240;8.596;2023-12-14T03:23:09;12.33;;;6.20;;
3689;SDS011;1861;50.240;8.596;2023-12-14T03:25:37;11.60;;;5.73;;
3689;SDS011;1861;50.240;8.596;2023-12-14T03:28:05;10.50;;;5.87;;
3689;SDS011;1861;50.240;8.596;2023-12-14T03:30:34;11.20;;;6.00;;
3689;SDS011;1861;50.240;8.596;2023-12-14T03:33:03;9.30;;;5.03;;
3689;SDS011;1861;50.240;8.596;2023-12-14T03:35:34;12.63;;;5.93;;
3689;SDS011;1861;50.240;8.596;2023-12-14T03:38:02;8.13;;;5.30;;
3689;SDS011;1861;50.240;8.596;2023-12-14T03:40:31;12.63;;;5.20;;
3689;SDS011;1861;50.240;8.596;2023-12-14T03:42:59;10.07;;;5.70;;
3689;SDS011;1861;50.240;8.596;2023-12-14T03:45:27;9.33;;;5.00;;
3689;SDS011;1861;50.240;8.596;2023-12-14T03:47:55;11.03;;;5.13;;
3689;SDS011;1861;50.240;8.596;2023-12-14T03:50:25;11.33;;;5.83;;
3689;SDS011;1861;50.240;8.596;2023-12-14T03:52:54;10.40;;;6.30;;
3689;SDS011;1861;50.240;8.596;2023-12-14T03:55:22;9.97;;;5.97;;
3689;SDS011;1861;50.240;8.596;2023-12-14T03:57:51;7.60;;;5.00;;
3689;SDS011;1861;50.240;8.596;2023-12-14T04:00:19;11.37;;;5.23;;
3689;SDS011;1861;50.240;8.596;2023-12-14T04:02:48;9.70;;;5.53;;
3689;SDS011;1861;50.240;8.596;2023-12-14T04:05:16;11.03;;;5.67;;
3689;SDS011;1861;50.240;8.596;2023-12-14T04:07:46;11.40;;;5.83;;
3689;SDS011;1861;50.240;8.596;2023-12-14T04:10:14;10.20;;;5.70;;
3689;SDS011;1861;50.240;8.596;2023-12-14T04:12:42;11.20;;;6.20;;
3689;SDS011;1861;50.240;8.596;2023-12-14T04:15:10;10.10;;;5.00;;
3689;SDS011;1861;50.240;8.596;2023-12-14T04:17:38;14.03;;;6.23;;
3689;SDS011;1861;50.240;8.596;2023-12-14T04:20:07;8.70;;;5.10;;
3689;SDS011;1861;50.240;8.596;2023-12-14T04:22:36;8.97;;;5.20;;
3689;SDS011;1861;50.240;8.596;2023-12-14T04:25:06;8.77;;;5.03;;
3689;SDS011;1861;50.240;8.596;2023-12-14T04:27:34;8.60;;;5.50;;
3689;SDS011;1861;50.240;8.596;2023-12-14T04:30:03;10.20;;;5.30;;
3689;SDS011;1861;50.240;8.596;2023-12-14T04:32:32;11.07;;;5.57;;
3689;SDS011;1861;50.240;8.596;2023-12-14T04:35:00;9.00;;;5.40;;
3689;SDS011;1861;50.240;8.596;2023-12-14T04:37:28;7.30;;;4.50;;
3689;SDS011;1861;50.240;8.596;2023-12-14T04:39:57;10.40;;;5.80;;
3689;SDS011;1861;50.240;8.596;2023-12-14T04:42:27;8.37;;;5.07;;
3689;SDS011;1861;50.240;8.596;2023-12-14T04:44:55;11.50;;;5.70;;
3689;SDS011;1861;50.240;8.596;2023-12-14T04:47:23;9.30;;;4.17;;
3689;SDS011;1861;50.240;8.596;2023-12-14T04:49:51;12.90;;;6.17;;
3689;SDS011;1861;50.240;8.596;2023-12-14T04:52:19;7.30;;;4.90;;
3689;SDS011;1861;50.240;8.596;2023-12-14T04:54:47;7.53;;;5.13;;
3689;SDS011;1861;50.240;8.596;2023-12-14T04:57:16;9.33;;;5.50;;
3689;SDS011;1861;50.240;8.596;2023-12-14T04:59:46;6.53;;;4.47;;
3689;SDS011;1861;50.240;8.596;2023-12-14T05:02:14;8.97;;;4.63;;
3689;SDS011;1861;50.240;8.596;2023-12-14T05:04:42;6.23;;;4.60;;
3689;SDS011;1861;50.240;8.596;2023-12-14T05:07:10;6.90;;;4.50;;
3689;SDS011;1861;50.240;8.596;2023-12-14T05:09:38;5.13;;;4.30;;
3689;SDS011;1861;50.240;8.596;2023-12-14T05:12:06;6.80;;;3.90;;
3689;SDS011;1861;50.240;8.596;2023-12-14T05:14:34;7.97;;;5.10;;
3689;SDS011;1861;50.240;8.596;2023-12-14T05:17:04;7.57;;;5.10;;
3689;SDS011;1861;50.240;8.596;2023-12-14T05:19:32;10.57;;;5.30;;
3689;SDS011;1861;50.240;8.596;2023-12-14T05:22:03;7.10;;;4.83;;
3689;SDS011;1861;50.240;8.596;2023-12-14T05:24:31;6.40;;;4.70;;
3689;SDS011;1861;50.240;8.596;2023-12-14T05:26:59;7.60;;;4.30;;
3689;SDS011;1861;50.240;8.596;2023-12-14T05:29:27;7.10;;;4.40;;
3689;SDS011;1861;50.240;8.596;2023-12-14T05:31:55;7.30;;;5.03;;
3689;SDS011;1861;50.240;8.596;2023-12-14T05:34:25;10.93;;;4.67;;
3689;SDS011;1861;50.240;8.596;2023-12-14T05:36:53;8.20;;;5.40;;
3689;SDS011;1861;50.240;8.596;2023-12-14T05:39:21;5.10;;;3.90;;
3689;SDS011;1861;50.240;8.596;2023-12-14T05:41:49;7.47;;;4.53;;
3689;SDS011;1861;50.240;8.596;2023-12-14T05:44:17;6.43;;;4.13;;
3689;SDS011;1861;50.240;8.596;2023-12-14T05:46:46;6.80;;;4.50;;
3689;SDS011;1861;50.240;8.596;2023-12-14T05:49:14;7.87;;;4.97;;
3689;SDS011;1861;50.240;8.596;2023-12-14T05:51:43;8.20;;;5.80;;
3689;SDS011;1861;50.240;8.596;2023-12-14T05:54:11;7.80;;;5.00;;
3689;SDS011;1861;50.240;8.596;2023-12-14T05:56:39;7.47;;;4.83;;
3689;SDS011;1861;50.240;8.596;2023-12-14T05:59:08;9.47;;;5.17;;
3689;SDS011;1861;50.240;8.596;2023-12-14T06:01:36;9.27;;;5.13;;
3689;SDS011;1861;50.240;8.596;2023-12-14T06:04:04;4.93;;;4.27;;
3689;SDS011;1861;50.240;8.596;2023-12-14T06:06:32;5.50;;;3.90;;
3689;SDS011;1861;50.240;8.596;2023-12-14T06:09:02;7.23;;;5.10;;
3689;SDS011;1861;50.240;8.596;2023-12-14T06:11:32;8.60;;;5.13;;
3689;SDS011;1861;50.240;8.596;2023-12-14T06:14:01;7.90;;;5.70;;
3689;SDS011;1861;50.240;8.596;2023-12-14T06:16:29;5.40;;;4.63;;
3689;SDS011;1861;50.240;8.596;2023-12-14T06:18:57;6.67;;;4.70;;
3689;SDS011;1861;50.240;8.596;2023-12-14T06:21:25;9.70;;;5.37;;
3689;SDS011;1861;50.240;8.596;2023-12-14T06:23:55;7.93;;;4.70;;
3689;SDS011;1861;50.240;8.596;2023-12-14T06:26:26;7.57;;;4.90;;
3689;SDS011;1861;50.240;8.596;2023-12-14T06:28:54;6.90;;;4.90;;
3689;SDS011;1861;50.240;8.596;2023-12-14T06:31:23;7.37;;;4.97;;
3689;SDS011;1861;50.240;8.596;2023-12-14T06:33:51;8.93;;;4.43;;
3689;SDS011;1861;50.240;8.596;2023-12-14T06:36:21;12.20;;;6.37;;
3689;SDS011;1861;50.240;8.596;2023-12-14T06:38:53;7.17;;;4.93;;
3689;SDS011;1861;50.240;8.596;2023-12-14T06:41:21;5.97;;;3.90;;
3689;SDS011;1861;50.240;8.596;2023-12-14T06:43:51;9.13;;;5.10;;
3689;SDS011;1861;50.240;8.596;2023-12-14T06:46:20;4.70;;;4.17;;
3689;SDS011;1861;50.240;8.596;2023-12-14T06:48:49;7.87;;;4.70;;
3689;SDS011;1861;50.240;8.596;2023-12-14T06:51:17;6.23;;;5.03;;
3689;SDS011;1861;50.240;8.596;2023-12-14T06:53:45;8.77;;;5.40;;
3689;SDS011;1861;50.240;8.596;2023-12-14T06:56:13;7.90;;;5.20;;
3689;SDS011;1861;50.240;8.596;2023-12-14T06:58:42;8.40;;;4.50;;
3689;SDS011;1861;50.240;8.596;2023-12-14T07:01:13;7.87;;;5.20;;
3689;SDS011;1861;50.240;8.596;2023-12-14T07:03:42;7.80;;;5.00;;
3689;SDS011;1861;50.240;8.596;2023-12-14T07:06:12;10.60;;;5.30;;
3689;SDS011;1861;50.240;8.596;2023-12-14T07:08:42;8.63;;;5.60;;
3689;SDS011;1861;50.240;8.596;2023-12-14T07:11:10;8.10;;;5.57;;
3689;SDS011;1861;50.240;8.596;2023-12-14T07:13:39;8.20;;;5.40;;
3689;SDS011;1861;50.240;8.596;2023-12-14T07:16:08;8.83;;;4.83;;
3689;SDS011;1861;50.240;8.596;2023-12-14T07:18:39;9.23;;;6.03;;
3689;SDS011;1861;50.240;8.596;2023-12-14T07:21:09;9.20;;;6.20;;
3689;SDS011;1861;50.240;8.596;2023-12-14T07:23:37;8.30;;;5.80;;
3689;SDS011;1861;50.240;8.596;2023-12-14T07:26:06;8.97;;;5.60;;
3689;SDS011;1861;50.240;8.596;2023-12-14T07:28:34;7.47;;;5.27;;
3689;SDS011;1861;50.240;8.596;2023-12-14T07:31:03;11.73;;;5.20;;
3689;SDS011;1861;50.240;8.596;2023-12-14T07:33:31;6.53;;;5.00;;
3689;SDS011;1861;50.240;8.596;2023-12-14T07:36:01;8.37;;;5.43;;
3689;SDS011;1861;50.240;8.596;2023-12-14T07:38:29;11.17;;;5.47;;
3689;SDS011;1861;50.240;8.596;2023-12-14T07:40:57;9.80;;;5.70;;
3689;SDS011;1861;50.240;8.596;2023-12-14T07:43:26;12.27;;;5.60;;
3689;SDS011;1861;50.240;8.596;2023-12-14T07:45:54;10.27;;;4.90;;
3689;SDS011;1861;50.240;8.596;2023-12-14T07:48:22;12.20;;;6.70;;
3689;SDS011;1861;50.240;8.596;2023-12-14T07:50:50;16.63;;;8.30;;
3689;SDS011;1861;50.240;8.596;2023-12-14T07:53:20;18.70;;;9.87;;
3689;SDS011;1861;50.240;8.596;2023-12-14T07:55:48;21.30;;;10.83;;
3689;SDS011;1861;50.240;8.596;2023-12-14T07:58:16;21.43;;;8.50;;
3689;SDS011;1861;50.240;8.596;2023-12-14T08:00:44;19.07;;;8.03;;
3689;SDS011;1861;50.240;8.596;2023-12-14T08:03:13;16.10;;;8.60;;
3689;SDS011;1861;50.240;8.596;2023-12-14T08:05:41;12.40;;;6.77;;
3689;SDS011;1861;50.240;8.596;2023-12-14T08:08:09;18.87;;;6.50;;
3689;SDS011;1861;50.240;8.596;2023-12-14T08:10:38;12.87;;;7.03;;
3689;SDS011;1861;50.240;8.596;2023-12-14T08:13:07;9.13;;;5.63;;
3689;SDS011;1861;50.240;8.596;2023-12-14T08:15:35;8.03;;;4.70;;
3689;SDS011;1861;50.240;8.596;2023-12-14T08:18:03;10.03;;;5.60;;
3689;SDS011;1861;50.240;8.596;2023-12-14T08:20:32;7.97;;;4.80;;
3689;SDS011;1861;50.240;8.596;2023-12-14T08:23:00;6.20;;;3.87;;
3689;SDS011;1861;50.240;8.596;2023-12-14T08:25:28;6.50;;;4.23;;
3689;SDS011;1861;50.240;8.596;2023-12-14T08:27:58;8.27;;;4.80;;
3689;SDS011;1861;50.240;8.596;2023-12-14T08:30:30;8.63;;;4.43;;
3689;SDS011;1861;50.240;8.596;2023-12-14T08:32:58;6.03;;;4.10;;
3689;SDS011;1861;50.240;8.596;2023-12-14T08:35:26;7.40;;;4.60;;
3689;SDS011;1861;50.240;8.596;2023-12-14T08:37:54;11.23;;;4.37;;
3689;SDS011;1861;50.240;8.596;2023-12-14T08:40:23;9.00;;;4.77;;
3689;SDS011;1861;50.240;8.596;2023-12-14T08:42:51;8.17;;;4.37;;
3689;SDS011;1861;50.240;8.596;2023-12-14T08:45:20;8.60;;;4.33;;
3689;SDS011;1861;50.240;8.596;2023-12-14T08:47:48;5.50;;;3.63;;
3689;SDS011;1861;50.240;8.596;2023-12-14T08:50:16;9.33;;;4.83;;
3689;SDS011;1861;50.240;8.596;2023-12-14T08:52:45;6.47;;;4.27;;
3689;SDS011;1861;50.240;8.596;2023-12-14T08:55:13;6.60;;;3.93;;
3689;SDS011;1861;50.240;8.596;2023-12-14T08:57:41;7.90;;;4.03;;
3689;SDS011;1861;50.240;8.596;2023-12-14T09:00:10;7.57;;;4.97;;
3689;SDS011;1861;50.240;8.596;2023-12-14T09:02:40;6.20;;;4.40;;
3689;SDS011;1861;50.240;8.596;2023-12-14T09:05:09;6.57;;;4.37;;
3689;SDS011;1861;50.240;8.596;2023-12-14T09:07:41;7.97;;;5.10;;
3689;SDS011;1861;50.240;8.596;2023-12-14T09:10:09;5.47;;;3.67;;
3689;SDS011;1861;50.240;8.596;2023-12-14T09:12:37;6.37;;;3.40;;
3689;SDS011;1861;50.240;8.596;2023-12-14T09:15:06;5.20;;;3.70;;
3689;SDS011;1861;50.240;8.596;2023-12-14T09:17:34;6.73;;;3.90;;
3689;SDS011;1861;50.240;8.596;2023-12-14T09:20:06;5.40;;;3.67;;
3689;SDS011;1861;50.240;8.596;2023-12-14T09:22:35;9.93;;;3.20;;
3689;SDS011;1861;50.240;8.596;2023-12-14T09:25:03;6.33;;;2.80;;
3689;SDS011;1861;50.240;8.596;2023-12-14T09:27:32;2.50;;;1.90;;
3689;SDS011;1861;50.240;8.596;2023-12-14T09:30:02;3.60;;;2.20;;
3689;SDS011;1861;50.240;8.596;2023-12-14T09:32:30;2.77;;;2.13;;
3689;SDS011;1861;50.240;8.596;2023-12-14T09:34:59;3.50;;;2.47;;
3689;SDS011;1861;50.240;8.596;2023-12-14T09:37:28;2.23;;;2.00;;
3689;SDS011;1861;50.240;8.596;2023-12-14T09:39:56;3.07;;;2.27;;
3689;SDS011;1861;50.240;8.596;2023-12-14T09:42:24;3.13;;;2.17;;
3689;SDS011;1861;50.240;8.596;2023-12-14T09:44:53;2.90;;;1.93;;
3689;SDS011;1861;50.240;8.596;2023-12-14T09:47:22;4.67;;;2.37;;
3689;SDS011;1861;50.240;8.596;2023-12-14T09:49:51;2.70;;;2.10;;
3689;SDS011;1861;50.240;8.596;2023-12-14T09:52:20;4.10;;;2.20;;
3689;SDS011;1861;50.240;8.596;2023-12-14T09:54:49;2.60;;;2.07;;
3689;SDS011;1861;50.240;8.596;2023-12-14T09:57:21;2.67;;;2.33;;
3689;SDS011;1861;50.240;8.596;2023-12-14T09:59:52;4.10;;;1.93;;
3689;SDS011;1861;50.240;8.596;2023-12-14T10:02:24;3.10;;;2.37;;
3689;SDS011;1861;50.240;8.596;2023-12-14T10:04:53;1.93;;;1.53;;
3689;SDS011;1861;50.240;8.596;2023-12-14T10:07:22;2.40;;;1.63;;
3689;SDS011;1861;50.240;8.596;2023-12-14T10:09:51;2.03;;;1.60;;
3689;SDS011;1861;50.240;8.596;2023-12-14T10:12:20;2.57;;;1.77;;
3689;SDS011;1861;50.240;8.596;2023-12-14T10:14:51;3.27;;;1.50;;
3689;SDS011;1861;50.240;8.596;2023-12-14T10:17:29;1.70;;;1.60;;
3689;SDS011;1861;50.240;8.596;2023-12-14T10:19:59;1.50;;;1.40;;
3689;SDS011;1861;50.240;8.596;2023-12-14T10:22:31;2.57;;;1.70;;
3689;SDS011;1861;50.240;8.596;2023-12-14T10:25:00;2.20;;;1.77;;
3689;SDS011;1861;50.240;8.596;2023-12-14T10:27:29;1.43;;;1.33;;
3689;SDS011;1861;50.240;8.596;2023-12-14T10:29:59;2.17;;;1.67;;
3689;SDS011;1861;50.240;8.596;2023-12-14T10:32:27;1.63;;;1.47;;
3689;SDS011;1861;50.240;8.596;2023-12-14T10:34:56;3.43;;;1.60;;
3689;SDS011;1861;50.240;8.596;2023-12-14T10:37:24;2.37;;;1.50;;
3689;SDS011;1861;50.240;8.596;2023-12-14T10:39:53;2.80;;;1.60;;
3689;SDS011;1861;50.240;8.596;2023-12-14T10:42:23;1.70;;;1.50;;
3689;SDS011;1861;50.240;8.596;2023-12-14T10:44:56;2.33;;;1.50;;
3689;SDS011;1861;50.240;8.596;2023-12-14T10:47:44;5.03;;;1.53;;
3689;SDS011;1861;50.240;8.596;2023-12-14T10:50:14;2.00;;;1.60;;
3689;SDS011;1861;50.240;8.596;2023-12-14T10:52:43;2.83;;;1.70;;
3689;SDS011;1861;50.240;8.596;2023-12-14T10:55:15;3.33;;;1.60;;
3689;SDS011;1861;50.240;8.596;2023-12-14T10:57:50;1.50;;;1.40;;
3689;SDS011;1861;50.240;8.596;2023-12-14T11:00:19;1.80;;;1.33;;
3689;SDS011;1861;50.240;8.596;2023-12-14T11:02:47;4.90;;;1.40;;
3689;SDS011;1861;50.240;8.596;2023-12-14T11:05:15;1.43;;;1.20;;
3689;SDS011;1861;50.240;8.596;2023-12-14T11:07:50;2.47;;;1.47;;
3689;SDS011;1861;50.240;8.596;2023-12-14T11:10:21;2.00;;;1.50;;
3689;SDS011;1861;50.240;8.596;2023-12-14T11:12:52;1.40;;;1.20;;
3689;SDS011;1861;50.240;8.596;2023-12-14T11:15:23;1.10;;;1.00;;
3689;SDS011;1861;50.240;8.596;2023-12-14T11:20:47;1.20;;;1.03;;
3689;SDS011;1861;50.240;8.596;2023-12-14T11:23:17;1.93;;;1.53;;
3689;SDS011;1861;50.240;8.596;2023-12-14T11:25:53;1.33;;;0.90;;
3689;SDS011;1861;50.240;8.596;2023-12-14T11:28:27;1.30;;;1.20;;
3689;SDS011;1861;50.240;8.596;2023-12-14T11:30:56;1.10;;;1.00;;
3689;SDS011;1861;50.240;8.596;2023-12-14T11:33:25;1.40;;;1.30;;
3689;SDS011;1861;50.240;8.596;2023-12-14T11:35:55;1.20;;;0.90;;
3689;SDS011;1861;50.240;8.596;2023-12-14T11:38:24;1.80;;;1.00;;
3689;SDS011;1861;50.240;8.596;2023-12-14T11:40:52;1.10;;;1.00;;
3689;SDS011;1861;50.240;8.596;2023-12-14T11:43:21;1.27;;;1.00;;
3689;SDS011;1861;50.240;8.596;2023-12-14T11:45:52;2.33;;;1.27;;
3689;SDS011;1861;50.240;8.596;2023-12-14T11:48:22;2.10;;;1.20;;
3689;SDS011;1861;50.240;8.596;2023-12-14T11:50:50;1.20;;;1.10;;
3689;SDS011;1861;50.240;8.596;2023-12-14T11:53:18;2.80;;;1.00;;
3689;SDS011;1861;50.240;8.596;2023-12-14T11:55:47;1.37;;;1.10;;
3689;SDS011;1861;50.240;8.596;2023-12-14T11:58:15;1.23;;;1.13;;
3689;SDS011;1861;50.240;8.596;2023-12-14T12:00:43;1.20;;;1.10;;
3689;SDS011;1861;50.240;8.596;2023-12-14T12:03:15;2.33;;;1.60;;
3689;SDS011;1861;50.240;8.596;2023-12-14T12:05:47;1.50;;;1.33;;
3689;SDS011;1861;50.240;8.596;2023-12-14T12:08:18;1.80;;;1.17;;
3689;SDS011;1861;50.240;8.596;2023-12-14T12:10:48;1.90;;;1.47;;
3689;SDS011;1861;50.240;8.596;2023-12-14T12:13:17;2.03;;;1.60;;
3689;SDS011;1861;50.240;8.596;2023-12-14T12:15:47;1.43;;;1.27;;
3689;SDS011;1861;50.240;8.596;2023-12-14T12:18:17;2.00;;;1.40;;
3689;SDS011;1861;50.240;8.596;2023-12-14T12:20:45;1.47;;;1.37;;
3689;SDS011;1861;50.240;8.596;2023-12-14T12:23:13;2.80;;;1.57;;
3689;SDS011;1861;50.240;8.596;2023-12-14T12:25:43;1.80;;;1.43;;
3689;SDS011;1861;50.240;8.596;2023-12-14T12:28:11;2.13;;;1.47;;
3689;SDS011;1861;50.240;8.596;2023-12-14T12:30:39;2.77;;;1.50;;
3689;SDS011;1861;50.240;8.596;2023-12-14T12:33:08;1.30;;;1.20;;
3689;SDS011;1861;50.240;8.596;2023-12-14T12:35:38;1.50;;;1.40;;
3689;SDS011;1861;50.240;8.596;2023-12-14T12:38:06;1.63;;;1.17;;
3689;SDS011;1861;50.240;8.596;2023-12-14T12:40:34;1.83;;;1.50;;
3689;SDS011;1861;50.240;8.596;2023-12-14T12:43:03;6.60;;;1.20;;
3689;SDS011;1861;50.240;8.596;2023-12-14T12:45:31;1.03;;;0.93;;
3689;SDS011;1861;50.240;8.596;2023-12-14T12:47:59;2.13;;;1.50;;
3689;SDS011;1861;50.240;8.596;2023-12-14T12:50:29;2.50;;;1.73;;
3689;SDS011;1861;50.240;8.596;2023-12-14T12:52:59;2.00;;;1.20;;
3689;SDS011;1861;50.240;8.596;2023-12-14T12:55:27;1.63;;;1.30;;
3689;SDS011;1861;50.240;8.596;2023-12-14T12:57:55;1.83;;;1.30;;
3689;SDS011;1861;50.240;8.596;2023-12-14T13:00:24;2.63;;;1.50;;
3689;SDS011;1861;50.240;8.596;2023-12-14T13:02:52;5.03;;;1.67;;
3689;SDS011;1861;50.240;8.596;2023-12-14T13:05:21;2.87;;;1.13;;
3689;SDS011;1861;50.240;8.596;2023-12-14T13:07:51;1.10;;;0.97;;
3689;SDS011;1861;50.240;8.596;2023-12-14T13:10:22;1.40;;;1.17;;
3689;SDS011;1861;50.240;8.596;2023-12-14T13:12:58;2.80;;;1.67;;
3689;SDS011;1861;50.240;8.596;2023-12-14T13:15:26;1.90;;;1.47;;
3689;SDS011;1861;50.240;8.596;2023-12-14T13:17:57;1.80;;;0.93;;
3689;SDS011;1861;50.240;8.596;2023-12-14T13:20:26;1.23;;;1.10;;
3689;SDS011;1861;50.240;8.596;2023-12-14T13:22:54;1.07;;;0.97;;
3689;SDS011;1861;50.240;8.596;2023-12-14T13:25:23;1.20;;;1.10;;
3689;SDS011;1861;50.240;8.596;2023-12-14T13:27:52;1.13;;;1.03;;
3689;SDS011;1861;50.240;8.596;2023-12-14T13:30:21;3.10;;;1.50;;
3689;SDS011;1861;50.240;8.596;2023-12-14T13:32:49;1.40;;;1.20;;
3689;SDS011;1861;50.240;8.596;2023-12-14T13:35:20;1.30;;;1.20;;
3689;SDS011;1861;50.240;8.596;2023-12-14T13:37:49;2.97;;;1.20;;
3689;SDS011;1861;50.240;8.596;2023-12-14T13:40:17;2.03;;;1.07;;
3689;SDS011;1861;50.240;8.596;2023-12-14T13:42:46;1.03;;;0.93;;
3689;SDS011;1861;50.240;8.596;2023-12-14T13:45:29;1.30;;;1.20;;
3689;SDS011;1861;50.240;8.596;2023-12-14T13:47:57;1.17;;;1.07;;
3689;SDS011;1861;50.240;8.596;2023-12-14T13:50:26;1.10;;;1.00;;
3689;SDS011;1861;50.240;8.596;2023-12-14T13:52:55;3.73;;;1.43;;
3689;SDS011;1861;50.240;8.596;2023-12-14T13:55:23;1.40;;;1.10;;
3689;SDS011;1861;50.240;8.596;2023-12-14T13:57:53;1.23;;;1.00;;
3689;SDS011;1861;50.240;8.596;2023-12-14T14:00:24;1.10;;;1.00;;
3689;SDS011;1861;50.240;8.596;2023-12-14T14:02:52;1.77;;;1.37;;
3689;SDS011;1861;50.240;8.596;2023-12-14T14:05:21;0.90;;;0.90;;
3689;SDS011;1861;50.240;8.596;2023-12-14T14:07:50;1.00;;;0.83;;
3689;SDS011;1861;50.240;8.596;2023-12-14T14:10:18;0.83;;;0.83;;
3689;SDS011;1861;50.240;8.596;2023-12-14T14:12:46;1.20;;;1.00;;
3689;SDS011;1861;50.240;8.596;2023-12-14T14:15:16;1.13;;;1.03;;
3689;SDS011;1861;50.240;8.596;2023-12-14T14:17:46;1.43;;;1.30;;
3689;SDS011;1861;50.240;8.596;2023-12-14T14:20:18;1.80;;;1.17;;
3689;SDS011;1861;50.240;8.596;2023-12-14T14:22:46;1.63;;;1.30;;
3689;SDS011;1861;50.240;8.596;2023-12-14T14:25:14;1.77;;;1.67;;
3689;SDS011;1861;50.240;8.596;2023-12-14T14:27:43;1.90;;;1.70;;
3689;SDS011;1861;50.240;8.596;2023-12-14T14:30:13;2.93;;;2.60;;
3689;SDS011;1861;50.240;8.596;2023-12-14T14:32:43;3.17;;;2.87;;
3689;SDS011;1861;50.240;8.596;2023-12-14T14:35:12;8.20;;;2.40;;
3689;SDS011;1861;50.240;8.596;2023-12-14T14:37:40;3.53;;;2.30;;
3689;SDS011;1861;50.240;8.596;2023-12-14T14:40:12;3.20;;;2.17;;
3689;SDS011;1861;50.240;8.596;2023-12-14T14:42:41;4.53;;;1.93;;
3689;SDS011;1861;50.240;8.596;2023-12-14T14:45:10;2.20;;;1.60;;
3689;SDS011;1861;50.240;8.596;2023-12-14T14:47:39;2.00;;;1.80;;
3689;SDS011;1861;50.240;8.596;2023-12-14T14:50:09;2.60;;;1.90;;
3689;SDS011;1861;50.240;8.596;2023-12-14T14:52:38;2.60;;;1.90;;
3689;SDS011;1861;50.240;8.596;2023-12-14T14:55:07;2.30;;;2.10;;
3689;SDS011;1861;50.240;8.596;2023-12-14T14:57:35;3.77;;;2.47;;
3689;SDS011;1861;50.240;8.596;2023-12-14T15:00:05;2.83;;;2.40;;
3689;SDS011;1861;50.240;8.596;2023-12-14T15:02:35;2.50;;;2.00;;
3689;SDS011;1861;50.240;8.596;2023-12-14T15:05:04;2.20;;;2.00;;
3689;SDS011;1861;50.240;8.596;2023-12-14T15:07:33;2.23;;;2.00;;
3689;SDS011;1861;50.240;8.596;2023-12-14T15:10:02;2.20;;;1.83;;
3689;SDS011;1861;50.240;8.596;2023-12-14T15:12:30;2.40;;;2.20;;
3689;SDS011;1861;50.240;8.596;2023-12-14T15:14:59;3.33;;;2.10;;
3689;SDS011;1861;50.240;8.596;2023-12-14T15:17:27;2.20;;;1.67;;
3689;SDS011;1861;50.240;8.596;2023-12-14T15:19:55;3.33;;;1.90;;
3689;SDS011;1861;50.240;8.596;2023-12-14T15:22:23;2.57;;;1.20;;
3689;SDS011;1861;50.240;8.596;2023-12-14T15:24:53;1.27;;;1.17;;
3689;SDS011;1861;50.240;8.596;2023-12-14T15:27:21;3.00;;;1.83;;